createdAt,value
2019-03-21T00:01:36.990Z,99.90
2019-03-21T00:04:13.045Z,99.90
2019-03-21T00:06:45.083Z,99.90
2019-03-21T00:09:18.826Z,99.90
2019-03-21T00:12:08.570Z,99.90
2019-03-21T00:15:26.386Z,99.90
2019-03-21T00:18:19.029Z,99.90
2019-03-21T00:20:51.399Z,99.90
2019-03-21T00:23:24.222Z,99.90
2019-03-21T00:25:57.314Z,99.90
2019-03-21T00:28:29.662Z,99.90
2019-03-21T00:31:02.064Z,99.90
2019-03-21T00:33:34.961Z,99.90
2019-03-21T00:36:07.345Z,99.90
2019-03-21T00:38:39.782Z,99.90
2019-03-21T00:41:12.092Z,99.90
2019-03-21T00:43:44.191Z,99.90
2019-03-21T00:46:16.594Z,99.90
2019-03-21T00:48:49.558Z,99.90
2019-03-21T00:51:21.816Z,99.90
2019-03-21T00:53:53.671Z,99.90
2019-03-21T00:56:26.895Z,99.90
2019-03-21T00:58:59.118Z,99.90
2019-03-21T01:01:31.709Z,99.90
2019-03-21T01:04:03.663Z,99.90
2019-03-21T01:06:36.335Z,99.90
2019-03-21T01:09:11.204Z,99.90
2019-03-21T01:11:44.442Z,99.90
2019-03-21T01:14:16.881Z,99.90
2019-03-21T01:16:50.102Z,99.90
2019-03-21T01:19:23.145Z,99.90
2019-03-21T01:21:56.355Z,99.90
2019-03-21T01:24:28.488Z,99.90
2019-03-21T01:27:02.396Z,99.90
2019-03-21T01:29:35.465Z,99.90
2019-03-21T01:32:07.894Z,99.90
2019-03-21T01:34:40.497Z,99.90
2019-03-21T01:37:13.118Z,99.90
2019-03-21T01:39:45.495Z,99.90
2019-03-21T01:42:17.385Z,99.90
2019-03-21T01:44:50.028Z,99.90
2019-03-21T01:47:22.534Z,99.90
2019-03-21T01:49:54.648Z,99.90
2019-03-21T01:52:26.744Z,99.90
2019-03-21T01:54:58.820Z,99.90
2019-03-21T01:57:30.972Z,99.90
2019-03-21T02:00:03.264Z,99.90
2019-03-21T02:02:35.820Z,99.90
2019-03-21T02:05:08.640Z,99.90
2019-03-21T02:07:40.836Z,99.90
2019-03-21T02:10:15.563Z,99.90
2019-03-21T02:12:47.644Z,99.90
2019-03-21T02:15:20.161Z,99.90
2019-03-21T02:17:52.614Z,99.90
2019-03-21T02:20:24.710Z,99.90
2019-03-21T02:22:56.907Z,99.90
2019-03-21T02:25:30.397Z,99.90
2019-03-21T02:28:02.247Z,99.90
2019-03-21T02:30:36.451Z,99.90
2019-03-21T02:33:17.915Z,99.90
2019-03-21T02:35:49.839Z,99.90
2019-03-21T02:38:22.383Z,99.90
2019-03-21T02:40:54.853Z,99.90
2019-03-21T02:43:27.632Z,99.90
2019-03-21T02:45:59.974Z,99.90
2019-03-21T02:48:32.371Z,99.90
2019-03-21T02:51:05.463Z,99.90
2019-03-21T02:53:38.354Z,99.90
2019-03-21T02:56:12.634Z,99.90
2019-03-21T02:58:44.895Z,99.90
2019-03-21T03:01:17.366Z,99.90
2019-03-21T03:03:50.078Z,99.90
2019-03-21T03:06:22.757Z,99.90
2019-03-21T03:08:55.756Z,99.90
2019-03-21T03:11:27.744Z,99.90
2019-03-21T03:14:00.003Z,99.90
2019-03-21T03:16:32.681Z,99.90
2019-03-21T03:19:05.684Z,99.90
2019-03-21T03:21:38.330Z,99.90
2019-03-21T03:24:11.749Z,99.90
2019-03-21T03:26:44.668Z,99.90
2019-03-21T03:29:17.119Z,99.90
2019-03-21T03:31:49.169Z,99.90
2019-03-21T03:34:21.594Z,99.90
2019-03-21T03:36:54.579Z,99.90
2019-03-21T03:39:26.468Z,99.90
2019-03-21T03:41:59.388Z,99.90
2019-03-21T03:44:32.577Z,99.90
2019-03-21T03:47:06.452Z,99.90
2019-03-21T03:49:39.295Z,99.90
2019-03-21T03:52:13.599Z,99.90
2019-03-21T03:54:46.862Z,99.90
2019-03-21T03:57:19.692Z,99.90
2019-03-21T03:59:52.328Z,99.90
2019-03-21T04:02:25.136Z,99.90
2019-03-21T04:04:59.063Z,99.90
2019-03-21T04:07:31.691Z,99.90
2019-03-21T04:10:05.225Z,99.90
2019-03-21T04:12:38.511Z,99.90
2019-03-21T04:15:11.736Z,99.90
2019-03-21T04:17:44.151Z,99.90
2019-03-21T04:20:17.957Z,99.90
2019-03-21T04:22:50.119Z,99.90
2019-03-21T04:25:27.008Z,99.90
2019-03-21T04:27:58.911Z,99.90
2019-03-21T04:30:31.139Z,99.90
2019-03-21T04:33:03.196Z,99.90
2019-03-21T04:35:35.809Z,99.90
2019-03-21T04:38:07.632Z,99.90
2019-03-21T04:40:40.406Z,99.90
2019-03-21T04:43:12.613Z,99.90
2019-03-21T04:45:44.815Z,99.90
2019-03-21T04:48:18.688Z,99.90
2019-03-21T04:50:50.811Z,99.90
2019-03-21T04:53:23.442Z,99.90
2019-03-21T04:55:55.904Z,99.90
2019-03-21T04:58:29.930Z,99.90
2019-03-21T05:01:02.831Z,99.90
2019-03-21T05:03:35.996Z,99.90
2019-03-21T05:06:08.538Z,99.90
2019-03-21T05:08:40.598Z,99.90
2019-03-21T05:11:12.650Z,99.90
2019-03-21T05:13:45.615Z,99.90
2019-03-21T05:16:18.451Z,99.90
2019-03-21T05:18:50.862Z,99.90
2019-03-21T05:21:23.066Z,99.90
2019-03-21T05:23:55.708Z,99.90
2019-03-21T05:26:28.206Z,99.90
2019-03-21T05:29:00.598Z,99.90
2019-03-21T05:31:34.514Z,99.90
2019-03-21T05:34:07.490Z,99.90
2019-03-21T05:36:39.812Z,99.90
2019-03-21T05:39:12.752Z,99.90
2019-03-21T05:41:45.880Z,99.90
2019-03-21T05:44:31.824Z,99.90
2019-03-21T05:47:13.377Z,99.90
2019-03-21T05:49:45.925Z,99.90
2019-03-21T05:52:18.191Z,99.90
2019-03-21T05:54:50.563Z,99.90
2019-03-21T05:57:23.273Z,99.90
2019-03-21T05:59:55.411Z,99.90
2019-03-21T06:02:28.132Z,99.90
2019-03-21T06:05:00.750Z,99.90
2019-03-21T06:07:52.840Z,99.90
2019-03-21T06:10:24.959Z,99.90
2019-03-21T06:12:57.257Z,99.90
2019-03-21T06:15:32.318Z,99.90
2019-03-21T06:19:05.617Z,99.90
2019-03-21T06:22:15.755Z,99.90
2019-03-21T06:25:50.568Z,99.90
2019-03-21T06:28:23.681Z,99.90
2019-03-21T06:30:55.845Z,99.90
2019-03-21T06:33:28.327Z,99.90
2019-03-21T06:36:00.408Z,99.90
2019-03-21T06:38:32.519Z,99.90
2019-03-21T06:41:04.761Z,99.90
2019-03-21T06:43:37.510Z,99.90
2019-03-21T06:46:09.944Z,99.90
2019-03-21T06:48:42.771Z,99.90
2019-03-21T06:51:15.179Z,99.90
2019-03-21T06:53:47.520Z,99.90
2019-03-21T06:56:19.685Z,99.90
2019-03-21T06:58:52.709Z,99.90
2019-03-21T07:01:25.102Z,99.90
2019-03-21T07:04:06.608Z,99.90
2019-03-21T07:06:32.503Z,99.90
2019-03-21T07:09:08.003Z,99.90
2019-03-21T07:11:40.820Z,99.90
2019-03-21T07:14:13.139Z,99.90
2019-03-21T07:16:45.770Z,99.90
2019-03-21T07:19:18.551Z,99.90
2019-03-21T07:21:51.944Z,99.70
2019-03-21T07:24:24.333Z,98.80
2019-03-21T07:26:56.728Z,98.20
2019-03-21T07:29:29.433Z,96.80
2019-03-21T07:32:02.071Z,96.50
2019-03-21T07:34:34.980Z,95.80
2019-03-21T07:37:07.795Z,94.30
2019-03-21T07:39:40.715Z,92.80
2019-03-21T07:42:12.999Z,93.20
2019-03-21T07:44:45.637Z,91.40
2019-03-21T07:47:18.960Z,90.00
2019-03-21T07:49:51.621Z,86.90
2019-03-21T07:52:24.273Z,85.20
2019-03-21T07:54:56.911Z,79.80
2019-03-21T07:57:29.346Z,79.20
2019-03-21T08:00:02.241Z,76.70
2019-03-21T08:02:34.824Z,75.70
2019-03-21T08:05:07.428Z,74.30
2019-03-21T08:07:39.356Z,72.00
2019-03-21T08:10:12.357Z,69.80
2019-03-21T08:12:44.555Z,67.70
2019-03-21T08:15:16.940Z,65.60
2019-03-21T08:17:49.336Z,64.10
2019-03-21T08:20:22.215Z,62.70
2019-03-21T08:22:54.362Z,61.60
2019-03-21T08:25:26.685Z,60.90
2019-03-21T08:27:58.946Z,61.50
2019-03-21T08:30:40.930Z,62.10
2019-03-21T08:33:13.596Z,60.50
2019-03-21T08:35:45.671Z,59.60
2019-03-21T08:38:17.726Z,59.50
2019-03-21T08:40:50.346Z,58.70
2019-03-21T08:43:23.617Z,58.80
2019-03-21T08:45:55.973Z,58.30
2019-03-21T08:48:28.554Z,56.20
2019-03-21T08:51:08.292Z,55.20
2019-03-21T08:53:35.280Z,54.40
2019-03-21T08:56:08.028Z,52.80
2019-03-21T08:58:40.291Z,54.10
2019-03-21T09:01:13.889Z,54.50
2019-03-21T09:03:46.264Z,56.10
2019-03-21T09:06:18.895Z,57.30
2019-03-21T09:08:51.950Z,58.00
2019-03-21T09:11:25.817Z,58.70
2019-03-21T09:13:57.610Z,58.50
2019-03-21T09:16:31.122Z,62.60
2019-03-21T09:19:03.241Z,67.70
2019-03-21T09:21:35.662Z,69.50
2019-03-21T09:24:08.119Z,70.10
2019-03-21T09:26:40.297Z,70.40
2019-03-21T09:29:12.756Z,71.90
2019-03-21T09:31:44.849Z,71.20
2019-03-21T09:34:16.994Z,72.70
2019-03-21T09:36:49.043Z,72.50
2019-03-21T09:39:21.437Z,75.00
2019-03-21T09:41:53.773Z,78.60
2019-03-21T09:44:30.201Z,81.20
2019-03-21T09:47:04.738Z,81.20
2019-03-21T09:49:36.762Z,79.20
2019-03-21T09:52:08.914Z,79.10
2019-03-21T09:54:41.576Z,78.20
2019-03-21T09:57:13.472Z,77.10
2019-03-21T09:59:46.299Z,72.80
2019-03-21T10:02:19.335Z,69.40
2019-03-21T10:04:52.268Z,68.60
2019-03-21T10:07:25.407Z,69.00
2019-03-21T10:09:57.822Z,69.20
2019-03-21T10:12:30.637Z,68.80
2019-03-21T10:15:02.914Z,66.30
2019-03-21T10:17:34.731Z,66.20
2019-03-21T10:20:07.648Z,66.30
2019-03-21T10:22:40.322Z,67.20
2019-03-21T10:25:12.731Z,69.60
2019-03-21T10:27:45.133Z,75.10
2019-03-21T10:30:35.023Z,77.70
2019-03-21T10:33:09.751Z,76.00
2019-03-21T10:35:42.611Z,75.40
2019-03-21T10:38:14.418Z,77.50
2019-03-21T10:40:47.009Z,78.50
2019-03-21T10:43:19.408Z,79.50
2019-03-21T10:45:51.444Z,78.60
2019-03-21T10:48:24.347Z,76.50
2019-03-21T10:50:58.067Z,73.70
2019-03-21T10:53:30.702Z,74.30
2019-03-21T10:56:03.308Z,73.20
2019-03-21T10:58:36.289Z,74.50
2019-03-21T11:01:08.693Z,78.10
2019-03-21T11:03:41.613Z,76.90
2019-03-21T11:06:14.091Z,77.10
2019-03-21T11:08:46.514Z,76.80
2019-03-21T11:11:18.965Z,76.10
2019-03-21T11:13:51.360Z,76.30
2019-03-21T11:16:24.187Z,77.40
2019-03-21T11:18:57.108Z,77.60
2019-03-21T11:21:30.763Z,83.40
2019-03-21T11:24:03.411Z,84.30
2019-03-21T11:26:36.049Z,86.00
2019-03-21T11:29:08.413Z,90.00
2019-03-21T11:31:40.809Z,92.60
2019-03-21T11:34:13.425Z,92.50
2019-03-21T11:36:46.017Z,93.20
2019-03-21T11:39:18.438Z,93.70
2019-03-21T11:41:50.233Z,95.20
2019-03-21T11:44:22.887Z,97.70
2019-03-21T11:46:54.722Z,98.20
2019-03-21T11:49:27.689Z,99.10
2019-03-21T11:51:59.742Z,99.90
2019-03-21T11:54:32.295Z,99.90
2019-03-21T11:57:04.793Z,99.90
2019-03-21T11:59:50.698Z,99.90
2019-03-21T12:02:11.038Z,99.90
2019-03-21T12:04:44.163Z,99.90
2019-03-21T12:07:16.596Z,99.90
2019-03-21T12:09:48.921Z,99.90
2019-03-21T12:12:21.311Z,99.90
2019-03-21T12:14:53.864Z,99.90
2019-03-21T12:17:26.050Z,99.90
2019-03-21T12:19:57.878Z,99.90
2019-03-21T12:22:30.526Z,99.90
2019-03-21T12:25:03.815Z,99.90
2019-03-21T12:27:36.497Z,99.90
2019-03-21T12:30:10.241Z,99.90
2019-03-21T12:32:42.087Z,99.90
2019-03-21T12:35:14.329Z,99.90
2019-03-21T12:37:46.709Z,99.90
2019-03-21T12:40:19.660Z,99.90
2019-03-21T12:42:52.465Z,99.90
2019-03-21T12:45:25.593Z,99.90
2019-03-21T12:47:57.949Z,99.90
2019-03-21T12:50:30.065Z,99.90
2019-03-21T12:53:02.225Z,99.90
2019-03-21T12:55:34.881Z,99.90
2019-03-21T12:58:07.824Z,99.90
2019-03-21T13:00:44.640Z,99.90
2019-03-21T13:03:17.195Z,99.90
2019-03-21T13:05:49.339Z,99.90
2019-03-21T13:08:33.142Z,99.90
2019-03-21T13:10:56.514Z,99.90
2019-03-21T13:13:28.915Z,99.90
2019-03-21T13:16:01.311Z,99.90
2019-03-21T13:18:33.420Z,99.90
2019-03-21T13:21:05.807Z,99.90
2019-03-21T13:23:38.609Z,99.90
2019-03-21T13:26:12.290Z,99.90
2019-03-21T13:28:45.474Z,99.90
2019-03-21T13:31:17.784Z,99.90
2019-03-21T13:33:50.213Z,99.90
2019-03-21T13:36:22.781Z,99.90
2019-03-21T13:38:55.371Z,99.90
2019-03-21T13:41:27.410Z,99.90
2019-03-21T13:44:00.035Z,99.90
2019-03-21T13:46:32.161Z,99.90
2019-03-21T13:49:06.173Z,99.90
2019-03-21T13:51:38.446Z,99.90
2019-03-21T13:54:11.284Z,99.90
2019-03-21T13:56:44.427Z,99.90
2019-03-21T13:59:16.793Z,99.90
2019-03-21T14:01:49.521Z,99.90
2019-03-21T14:04:21.921Z,99.90
2019-03-21T14:06:54.861Z,99.90
2019-03-21T14:09:27.100Z,99.90
2019-03-21T14:11:59.295Z,99.90
2019-03-21T14:14:32.047Z,99.90
2019-03-21T14:17:04.825Z,99.90
2019-03-21T14:19:37.163Z,99.90
2019-03-21T14:22:09.843Z,99.90
2019-03-21T14:24:42.280Z,99.90
2019-03-21T14:27:14.981Z,99.90
2019-03-21T14:29:47.162Z,99.90
2019-03-21T14:32:19.051Z,99.90
2019-03-21T14:34:51.209Z,99.90
2019-03-21T14:37:23.286Z,99.90
2019-03-21T14:39:56.117Z,99.90
2019-03-21T14:42:28.285Z,99.90
2019-03-21T14:45:00.459Z,99.90
2019-03-21T14:47:36.349Z,99.90
2019-03-21T14:50:08.688Z,99.90
2019-03-21T14:52:41.102Z,99.90
2019-03-21T14:55:14.860Z,99.90
2019-03-21T14:57:47.385Z,99.90
2019-03-21T15:00:20.765Z,99.90
2019-03-21T15:02:53.735Z,99.90
2019-03-21T15:05:25.625Z,99.90
2019-03-21T15:07:57.692Z,99.90
2019-03-21T15:10:30.292Z,99.90
2019-03-21T15:13:02.453Z,99.90
2019-03-21T15:15:34.257Z,99.90
2019-03-21T15:18:06.689Z,99.90
2019-03-21T15:20:39.182Z,99.90
2019-03-21T15:23:12.237Z,99.90
2019-03-21T15:25:45.028Z,99.90
2019-03-21T15:28:18.203Z,99.90
2019-03-21T15:30:50.702Z,99.90
2019-03-21T15:33:22.948Z,99.90
2019-03-21T15:35:54.787Z,99.90
2019-03-21T15:38:27.993Z,99.90
2019-03-21T15:41:00.485Z,99.90
2019-03-21T15:43:32.545Z,99.90
2019-03-21T15:46:05.026Z,99.90
2019-03-21T15:48:37.479Z,99.90
2019-03-21T15:51:10.800Z,99.90
2019-03-21T15:53:53.254Z,99.90
2019-03-21T15:56:17.656Z,99.90
2019-03-21T15:58:50.849Z,99.90
2019-03-21T16:01:22.666Z,99.90
2019-03-21T16:03:56.061Z,99.90
2019-03-21T16:06:29.269Z,99.90
2019-03-21T16:09:02.490Z,99.90
2019-03-21T16:11:36.485Z,99.90
2019-03-21T16:14:09.154Z,99.90
2019-03-21T16:16:41.048Z,99.90
2019-03-21T16:19:13.216Z,99.90
2019-03-21T16:21:45.661Z,99.90
2019-03-21T16:24:18.259Z,99.90
2019-03-21T16:26:50.309Z,99.90
2019-03-21T16:29:22.797Z,99.90
2019-03-21T16:31:55.769Z,99.90
2019-03-21T16:34:28.474Z,99.90
2019-03-21T16:37:00.855Z,99.90
2019-03-21T16:39:33.851Z,99.90
2019-03-21T16:42:05.835Z,99.90
2019-03-21T16:44:38.200Z,99.90
2019-03-21T16:47:10.676Z,99.90
2019-03-21T16:49:43.198Z,99.90
2019-03-21T16:52:15.369Z,99.90
2019-03-21T16:54:47.297Z,99.90
2019-03-21T16:57:19.540Z,99.90
2019-03-21T16:59:52.198Z,99.90
2019-03-21T17:02:24.629Z,99.90
2019-03-21T17:04:56.931Z,99.90
2019-03-21T17:07:29.314Z,99.90
2019-03-21T17:10:01.959Z,99.90
2019-03-21T17:12:35.071Z,99.90
2019-03-21T17:15:09.539Z,99.90
2019-03-21T17:17:42.095Z,99.90
2019-03-21T17:20:15.760Z,99.90
2019-03-21T17:22:48.287Z,99.90
2019-03-21T17:25:20.702Z,99.90
2019-03-21T17:27:54.952Z,99.90
2019-03-21T17:30:28.623Z,99.90
2019-03-21T17:33:01.255Z,99.90
2019-03-21T17:35:33.163Z,99.90
2019-03-21T17:38:05.676Z,99.90
2019-03-21T17:40:38.234Z,99.90
2019-03-21T17:43:10.642Z,99.90
2019-03-21T17:45:42.778Z,99.90
2019-03-21T17:48:15.829Z,99.90
2019-03-21T17:50:48.050Z,99.90
2019-03-21T17:53:20.519Z,99.90
2019-03-21T17:55:52.826Z,99.90
2019-03-21T17:58:25.123Z,99.90
2019-03-21T18:00:57.595Z,99.90
2019-03-21T18:03:29.678Z,99.90
2019-03-21T18:06:02.373Z,99.90
2019-03-21T18:08:35.074Z,99.90
2019-03-21T18:11:07.584Z,99.90
2019-03-21T18:13:39.927Z,99.90
2019-03-21T18:16:12.339Z,99.90
2019-03-21T18:18:44.928Z,99.90
2019-03-21T18:21:18.434Z,99.90
2019-03-21T18:23:50.600Z,99.90
2019-03-21T18:26:22.851Z,99.90
2019-03-21T18:28:54.728Z,99.90
2019-03-21T18:31:27.304Z,99.90
2019-03-21T18:34:00.757Z,99.90
2019-03-21T18:36:33.222Z,99.90
2019-03-21T18:39:08.575Z,99.90
2019-03-21T18:41:41.788Z,99.90
2019-03-21T18:44:14.825Z,99.90
2019-03-21T18:46:47.242Z,99.90
2019-03-21T18:49:19.563Z,99.90
2019-03-21T18:51:51.924Z,99.90
2019-03-21T18:54:24.306Z,99.90
2019-03-21T18:56:57.559Z,99.90
2019-03-21T18:59:30.457Z,99.90
2019-03-21T19:02:02.995Z,99.90
2019-03-21T19:04:35.359Z,99.90
2019-03-21T19:07:09.314Z,99.90
2019-03-21T19:09:43.932Z,99.90
2019-03-21T19:12:15.556Z,99.90
2019-03-21T19:14:48.891Z,99.90
2019-03-21T19:17:22.467Z,99.90
2019-03-21T19:19:54.759Z,99.90
2019-03-21T19:22:27.379Z,99.90
2019-03-21T19:24:59.774Z,99.90
2019-03-21T19:27:32.236Z,99.90
2019-03-21T19:30:05.389Z,99.90
2019-03-21T19:32:37.723Z,99.90
2019-03-21T19:35:10.373Z,99.90
2019-03-21T19:37:42.567Z,99.90
2019-03-21T19:40:15.139Z,99.90
2019-03-21T19:42:48.708Z,99.90
2019-03-21T19:45:21.047Z,99.90
2019-03-21T19:47:53.266Z,99.90
2019-03-21T19:50:25.350Z,99.90
2019-03-21T19:52:57.987Z,99.90
2019-03-21T19:55:31.380Z,99.90
2019-03-21T19:58:04.202Z,99.90
2019-03-21T20:00:36.793Z,99.90
2019-03-21T20:03:09.761Z,99.90
2019-03-21T20:05:42.911Z,99.90
2019-03-21T20:08:15.317Z,99.90
2019-03-21T20:10:47.512Z,99.90
2019-03-21T20:13:19.657Z,99.90
2019-03-21T20:15:51.806Z,99.90
2019-03-21T20:18:23.911Z,99.90
2019-03-21T20:20:56.346Z,99.90
2019-03-21T20:23:29.172Z,99.90
2019-03-21T20:26:02.536Z,99.90
2019-03-21T20:28:35.897Z,99.90
2019-03-21T20:31:08.906Z,99.90
2019-03-21T20:33:41.959Z,99.90
2019-03-21T20:36:14.017Z,99.90
2019-03-21T20:38:45.839Z,99.90
2019-03-21T20:41:18.382Z,99.90
2019-03-21T20:43:51.387Z,99.90
2019-03-21T20:46:24.158Z,99.90
2019-03-21T20:48:53.204Z,99.90
2019-03-21T20:51:26.142Z,99.90
2019-03-21T20:53:58.524Z,99.90
2019-03-21T20:56:31.102Z,99.90
2019-03-21T20:59:04.342Z,99.90
2019-03-21T21:01:37.372Z,99.90
2019-03-21T21:04:11.283Z,99.90
2019-03-21T21:06:43.843Z,99.90
2019-03-21T21:09:16.213Z,99.90
2019-03-21T21:11:48.440Z,99.90
2019-03-21T21:14:20.963Z,99.90
2019-03-21T21:16:54.347Z,99.90
2019-03-21T21:19:27.510Z,99.90
2019-03-21T21:22:00.275Z,99.90
2019-03-21T21:24:33.759Z,99.90
2019-03-21T21:27:06.507Z,99.90
2019-03-21T21:29:39.135Z,99.90
2019-03-21T21:32:11.326Z,99.90
2019-03-21T21:34:44.042Z,99.90
2019-03-21T21:37:16.420Z,99.90
2019-03-21T21:39:48.290Z,99.90
2019-03-21T21:42:20.961Z,99.90
2019-03-21T21:44:53.443Z,99.90
2019-03-21T21:47:26.017Z,99.90
2019-03-21T21:49:58.602Z,99.90
2019-03-21T21:52:41.558Z,99.90
2019-03-21T21:55:05.942Z,99.90
2019-03-21T21:57:38.642Z,99.90
2019-03-21T22:00:13.853Z,99.90
2019-03-21T22:02:46.290Z,99.90
2019-03-21T22:05:18.868Z,99.90
2019-03-21T22:07:51.982Z,99.90
2019-03-21T22:10:24.845Z,99.90
2019-03-21T22:12:56.881Z,99.90
2019-03-21T22:15:29.489Z,99.90
2019-03-21T22:18:02.312Z,99.90
2019-03-21T22:20:34.409Z,99.90
2019-03-21T22:23:06.674Z,99.90
2019-03-21T22:25:39.111Z,99.90
2019-03-21T22:28:11.547Z,99.90
2019-03-21T22:30:44.017Z,99.90
2019-03-21T22:33:16.493Z,99.90
2019-03-21T22:35:49.702Z,99.90
2019-03-21T22:38:22.432Z,99.90
2019-03-21T22:40:54.608Z,99.90
2019-03-21T22:43:28.240Z,99.90
2019-03-21T22:46:01.129Z,99.90
2019-03-21T22:48:33.305Z,99.90
2019-03-21T22:51:05.856Z,99.90
2019-03-21T22:53:37.991Z,99.90
2019-03-21T22:56:10.919Z,99.90
2019-03-21T22:58:42.988Z,99.90
2019-03-21T23:01:15.720Z,99.90
2019-03-21T23:03:48.576Z,99.90
2019-03-21T23:06:21.688Z,99.90
2019-03-21T23:08:53.950Z,99.90
2019-03-21T23:11:26.536Z,99.90
2019-03-21T23:13:58.934Z,99.90
2019-03-21T23:16:31.500Z,99.90
2019-03-21T23:19:04.601Z,99.90
2019-03-21T23:21:36.634Z,99.90
2019-03-21T23:24:08.529Z,99.90
2019-03-21T23:26:52.237Z,99.90
2019-03-21T23:29:15.296Z,99.90
2019-03-21T23:31:47.354Z,99.90
2019-03-21T23:34:20.516Z,99.90
2019-03-21T23:36:53.036Z,99.90
2019-03-21T23:39:25.097Z,99.90
2019-03-21T23:41:57.483Z,99.90
2019-03-21T23:44:30.063Z,99.90
2019-03-21T23:47:02.607Z,99.90
2019-03-21T23:49:35.719Z,99.90
2019-03-21T23:52:08.907Z,99.90
2019-03-21T23:54:41.030Z,99.90
2019-03-21T23:57:13.185Z,99.90
2019-03-21T23:59:45.528Z,99.90
